Time;durP1;ratioP1;P1;durP2;ratioP2;P2;SDS_P1;SDS_P2;PMS_P1;PMS_P2;Temp;Humidity;BMP_temperature;BMP_pressure;BME280_temperature;BME280_humidity;BME280_pressure;Samples;Min_cycle;Max_cycle;Signal;HPM_P1;HPM_P2
2022/09/13 17:49:53;;;;;;;3.40;3.10;;;23.80;99.90;;;;;;5150387;27;20545;-63
2022/09/13 17:52:20;;;;;;;3.05;2.92;;;23.80;99.90;;;;;;5129210;27;20430;-64
2022/09/13 17:54:49;;;;;;;4.17;3.50;;;23.90;99.90;;;;;;5130259;27;20207;-63
2022/09/13 17:57:15;;;;;;;4.10;3.80;;;24.00;99.90;;;;;;5131988;27;20449;-70
2022/09/13 17:59:42;;;;;;;3.87;3.57;;;24.00;99.90;;;;;;5118495;27;20993;-67
2022/09/13 18:02:10;;;;;;;3.73;3.53;;;24.10;99.90;;;;;;5117921;28;20926;-68
2022/09/13 18:04:37;;;;;;;5.30;4.83;;;24.10;99.90;;;;;;5123179;28;20860;-67
2022/09/13 18:07:05;;;;;;;4.63;4.23;;;24.10;99.90;;;;;;5130240;27;20505;-69
2022/09/13 18:09:32;;;;;;;4.90;4.40;;;24.10;99.90;;;;;;5139014;27;20477;-64
2022/09/13 18:11:59;;;;;;;4.30;3.90;;;24.20;99.90;;;;;;5141960;27;20441;-67
2022/09/13 18:14:26;;;;;;;5.10;4.60;;;24.20;99.90;;;;;;5140960;27;20465;-62
2022/09/13 18:16:54;;;;;;;4.67;4.37;;;24.20;99.90;;;;;;5124328;27;20446;-64
2022/09/13 18:19:22;;;;;;;5.80;5.30;;;24.20;99.90;;;;;;5110289;28;20938;-64
2022/09/13 18:21:49;;;;;;;5.00;4.63;;;24.20;99.90;;;;;;5110588;28;20437;-62
2022/09/13 18:24:17;;;;;;;5.67;5.27;;;24.20;99.90;;;;;;5112441;28;20451;-67
2022/09/13 18:26:44;;;;;;;5.10;4.70;;;24.20;99.90;;;;;;5113830;28;20938;-64
2022/09/13 18:29:13;;;;;;;5.57;5.17;;;24.20;99.90;;;;;;5118837;28;20573;-65
2022/09/13 18:31:42;;;;;;;5.20;4.90;;;24.30;99.90;;;;;;5110667;28;20564;-61
2022/09/13 18:34:13;;;;;;;6.07;5.67;;;24.30;99.90;;;;;;5110636;28;20464;-62
2022/09/13 18:36:40;;;;;;;5.77;4.70;;;24.30;99.90;;;;;;5112405;28;20984;-63
2022/09/13 18:39:12;;;;;;;4.73;4.00;;;24.20;99.90;;;;;;5111424;28;20481;-62
2022/09/13 18:41:40;;;;;;;4.60;4.20;;;24.30;99.90;;;;;;5120372;28;20441;-61
2022/09/13 18:44:09;;;;;;;5.23;4.83;;;24.30;99.90;;;;;;5131188;27;20922;-61
2022/09/13 18:46:37;;;;;;;4.83;4.53;;;24.30;99.90;;;;;;5127467;27;21006;-63
2022/09/13 18:49:05;;;;;;;4.27;3.87;;;24.30;99.90;;;;;;5111396;28;20477;-63
2022/09/13 18:51:34;;;;;;;4.93;4.53;;;24.30;99.90;;;;;;5115042;27;20456;-66
2022/09/13 18:54:02;;;;;;;6.73;5.63;;;24.30;99.90;;;;;;5110992;28;20473;-65
2022/09/13 18:56:31;;;;;;;6.03;5.60;;;24.30;99.90;;;;;;5113636;27;20441;-65
2022/09/13 18:59:01;;;;;;;5.30;4.80;;;24.40;99.90;;;;;;5128733;27;20493;-66
2022/09/13 19:01:30;;;;;;;5.17;4.77;;;24.40;99.90;;;;;;5114839;28;20448;-62
2022/09/13 19:03:59;;;;;;;5.37;4.97;;;24.40;99.90;;;;;;5115779;28;20562;-64
2022/09/13 19:06:30;;;;;;;4.63;4.30;;;24.40;99.90;;;;;;5097309;28;20484;-66
2022/09/13 19:08:58;;;;;;;6.00;5.50;;;24.40;99.90;;;;;;5094919;28;20894;-62
2022/09/13 19:11:28;;;;;;;5.50;5.20;;;24.40;99.90;;;;;;5094822;28;20438;-63
2022/09/13 19:13:54;;;;;;;5.80;5.40;;;24.40;99.90;;;;;;5096965;28;20446;-64
2022/09/13 19:16:24;;;;;;;6.03;5.63;;;24.40;99.90;;;;;;5105581;28;20815;-63
2022/09/13 19:18:50;;;;;;;5.40;5.10;;;24.40;99.90;;;;;;5115733;28;20488;-65
2022/09/13 19:21:19;;;;;;;7.53;6.93;;;24.40;99.90;;;;;;5097265;28;20439;-59
2022/09/13 19:23:47;;;;;;;7.23;6.63;;;24.40;99.90;;;;;;5094847;28;20456;-63
2022/09/13 19:26:16;;;;;;;5.77;5.27;;;24.50;99.90;;;;;;5094430;28;20445;-62
2022/09/13 19:28:46;;;;;;;6.27;5.63;;;24.40;99.90;;;;;;5097262;28;20481;-62
2022/09/13 19:31:14;;;;;;;5.87;5.47;;;24.40;99.90;;;;;;5114710;28;20528;-63
2022/09/13 19:33:43;;;;;;;5.30;4.90;;;24.40;99.90;;;;;;5114922;28;20452;-65
2022/09/13 19:36:13;;;;;;;5.97;5.57;;;24.40;99.90;;;;;;5114678;28;20441;-62
2022/09/13 19:38:40;;;;;;;5.63;5.20;;;24.50;99.90;;;;;;5114847;28;20989;-66
2022/09/13 19:41:10;;;;;;;6.23;5.13;;;24.50;99.90;;;;;;5114799;28;20437;-68
2022/09/13 19:43:38;;;;;;;5.77;5.37;;;24.50;99.90;;;;;;5114644;28;20529;-63
2022/09/13 19:46:06;;;;;;;5.67;5.20;;;24.50;99.90;;;;;;5114391;28;20806;-64
2022/09/13 19:48:37;;;;;;;6.20;5.60;;;24.40;99.90;;;;;;5114184;28;20563;-67
2022/09/13 19:51:07;;;;;;;5.40;4.97;;;24.40;99.90;;;;;;5114958;28;20441;-65
2022/09/13 19:53:35;;;;;;;5.20;4.80;;;24.40;99.90;;;;;;5115000;28;20524;-61
2022/09/13 19:56:03;;;;;;;6.60;6.00;;;24.40;99.90;;;;;;5115558;28;20442;-63
2022/09/13 19:58:30;;;;;;;6.47;4.93;;;24.40;99.90;;;;;;5115020;28;20896;-63
2022/09/13 20:01:05;;;;;;;4.87;4.47;;;24.40;99.90;;;;;;5115235;28;20536;-63
2022/09/13 20:03:32;;;;;;;5.60;5.10;;;24.40;99.90;;;;;;5115492;28;20444;-64
2022/09/13 20:06:01;;;;;;;5.40;5.00;;;24.40;99.90;;;;;;5115729;28;20446;-62
2022/09/13 20:08:29;;;;;;;6.23;5.60;;;24.40;99.90;;;;;;5115052;28;20485;-64
2022/09/13 20:10:57;;;;;;;5.57;4.97;;;24.40;99.90;;;;;;5114529;28;20442;-66
2022/09/13 20:13:24;;;;;;;6.60;6.10;;;24.40;99.90;;;;;;5110473;28;20457;-64
2022/09/13 20:15:52;;;;;;;6.27;5.77;;;24.40;99.90;;;;;;5102946;28;20528;-63
2022/09/13 20:18:19;;;;;;;5.53;5.03;;;24.50;99.90;;;;;;5107529;28;20472;-64
2022/09/13 20:20:47;;;;;;;7.63;6.30;;;24.50;99.90;;;;;;5103190;28;20442;-65
2022/09/13 20:23:15;;;;;;;6.37;5.70;;;24.40;99.90;;;;;;5112839;28;20931;-61
2022/09/13 20:25:45;;;;;;;6.77;5.83;;;24.40;99.90;;;;;;5109696;28;20450;-63
2022/09/13 20:28:12;;;;;;;5.90;5.40;;;24.50;99.90;;;;;;5093874;28;20466;-63
2022/09/13 20:30:40;;;;;;;5.90;5.50;;;24.40;99.90;;;;;;5094317;28;20511;-66
2022/09/13 20:33:08;;;;;;;6.97;5.03;;;24.40;99.90;;;;;;5099303;28;20441;-65
2022/09/13 20:35:37;;;;;;;5.50;5.10;;;24.40;99.90;;;;;;5106108;28;20474;-66
2022/09/13 20:38:05;;;;;;;6.23;5.63;;;24.40;99.90;;;;;;5093102;28;20963;-65
2022/09/13 20:40:33;;;;;;;5.80;5.40;;;24.40;99.90;;;;;;5100722;28;20434;-66
2022/09/13 20:43:01;;;;;;;7.43;6.53;;;24.40;99.90;;;;;;5092770;28;20461;-66
2022/09/13 20:45:28;;;;;;;6.53;5.93;;;24.30;99.90;;;;;;5107031;28;20541;-66
2022/09/13 20:47:55;;;;;;;6.13;5.63;;;24.30;99.90;;;;;;5101836;28;20508;-65
2022/09/13 20:50:22;;;;;;;6.70;6.00;;;24.30;99.90;;;;;;5106715;28;20477;-67
2022/09/13 20:52:48;;;;;;;6.60;6.00;;;24.30;99.90;;;;;;5094239;28;20447;-65
2022/09/13 20:55:16;;;;;;;5.97;5.37;;;24.30;99.90;;;;;;5092991;28;20450;-65
2022/09/13 20:57:42;;;;;;;7.70;5.60;;;24.30;99.90;;;;;;5092589;28;20533;-65
2022/09/13 21:00:12;;;;;;;6.40;5.80;;;24.30;99.90;;;;;;5108041;28;20497;-65
2022/09/13 21:02:39;;;;;;;5.87;5.47;;;24.30;99.90;;;;;;5110113;28;20456;-65
2022/09/13 21:05:07;;;;;;;6.00;5.53;;;24.30;99.90;;;;;;5097149;28;20449;-65
2022/09/13 21:10:18;;;;;;;10.67;7.20;;;24.20;99.90;;;;;;5103848;28;20552;-66
2022/09/13 21:12:49;;;;;;;6.63;6.03;;;24.20;99.90;;;;;;5110253;28;20446;-65
2022/09/13 21:15:18;;;;;;;7.23;6.63;;;24.20;99.90;;;;;;5095562;28;20451;-66
2022/09/13 21:17:46;;;;;;;7.60;7.00;;;24.20;99.90;;;;;;5091798;28;20442;-66
2022/09/13 21:20:13;;;;;;;7.77;7.17;;;24.20;99.90;;;;;;5092052;28;20816;-66
2022/09/13 21:22:42;;;;;;;7.77;7.17;;;24.20;99.90;;;;;;5091076;28;20446;-66
2022/09/13 21:25:10;;;;;;;10.50;8.43;;;24.10;99.90;;;;;;5091762;28;20781;-66
2022/09/13 21:27:37;;;;;;;7.20;6.47;;;24.10;99.90;;;;;;5091751;28;20450;-65
2022/09/13 21:30:04;;;;;;;8.03;7.33;;;24.10;99.90;;;;;;5091744;28;20840;-65
2022/09/13 21:32:32;;;;;;;7.57;6.90;;;24.10;99.90;;;;;;5091554;28;20850;-66
2022/09/13 21:34:59;;;;;;;7.13;6.67;;;24.10;99.90;;;;;;5091674;28;20867;-65
2022/09/13 21:37:27;;;;;;;9.00;8.10;;;24.10;99.90;;;;;;5091465;28;20474;-65
2022/09/13 21:39:54;;;;;;;10.53;9.73;;;24.10;99.90;;;;;;5091584;28;20465;-65
2022/09/13 21:42:21;;;;;;;8.13;6.50;;;24.00;99.90;;;;;;5091400;28;20513;-65
2022/09/13 21:44:48;;;;;;;8.03;7.30;;;24.00;99.90;;;;;;5091676;28;20693;-66
2022/09/13 21:47:15;;;;;;;8.30;6.90;;;24.00;99.90;;;;;;5091473;28;20508;-66
2022/09/13 21:49:44;;;;;;;6.50;5.60;;;24.00;99.90;;;;;;5094815;28;20560;-65
2022/09/13 21:52:11;;;;;;;8.67;7.67;;;24.00;99.90;;;;;;5099326;28;20485;-66
2022/09/13 21:54:38;;;;;;;8.77;6.97;;;24.00;99.90;;;;;;5107629;28;20450;-66
2022/09/13 21:57:05;;;;;;;6.50;6.00;;;24.00;99.90;;;;;;5093166;28;21054;-65
2022/09/13 21:59:31;;;;;;;6.27;5.77;;;24.00;99.90;;;;;;5101836;28;20462;-65
2022/09/13 22:01:58;;;;;;;4.50;4.10;;;24.00;99.90;;;;;;5098677;28;20556;-66
2022/09/13 22:04:26;;;;;;;4.97;4.50;;;23.90;99.90;;;;;;5103870;28;20439;-66
2022/09/13 22:06:55;;;;;;;5.03;3.57;;;23.90;99.90;;;;;;5100011;28;20536;-65
2022/09/13 22:09:25;;;;;;;2.93;2.73;;;23.90;99.90;;;;;;5101807;28;20486;-65
2022/09/13 22:11:52;;;;;;;2.47;2.37;;;23.90;99.90;;;;;;5098413;28;20473;-66
2022/09/13 22:14:21;;;;;;;2.60;2.40;;;23.90;99.90;;;;;;5098663;28;20441;-66
2022/09/13 22:16:49;;;;;;;2.10;1.97;;;23.90;99.90;;;;;;5111859;28;20448;-65
2022/09/13 22:19:19;;;;;;;2.97;2.33;;;23.80;99.90;;;;;;5102749;28;20861;-66
2022/09/13 22:21:48;;;;;;;2.33;2.23;;;23.80;99.90;;;;;;5100249;28;20453;-66
2022/09/13 22:24:18;;;;;;;2.50;2.40;;;23.80;99.90;;;;;;5099737;28;20442;-65
2022/09/13 22:26:46;;;;;;;2.43;2.23;;;23.80;99.90;;;;;;5107129;28;20446;-65
2022/09/13 22:29:14;;;;;;;2.07;1.97;;;23.80;99.90;;;;;;5092605;28;20488;-65
2022/09/13 22:31:43;;;;;;;2.03;1.87;;;23.80;99.90;;;;;;5101968;28;20554;-64
2022/09/13 22:34:12;;;;;;;2.60;2.40;;;23.70;99.90;;;;;;5098026;28;20454;-65
2022/09/13 22:36:39;;;;;;;3.23;2.27;;;23.80;99.90;;;;;;5110838;28;20958;-66
2022/09/13 22:39:06;;;;;;;2.57;2.47;;;23.80;99.90;;;;;;5100253;28;20470;-65
2022/09/13 22:41:35;;;;;;;2.20;2.10;;;23.80;99.90;;;;;;5106362;28;20529;-66
2022/09/13 22:44:03;;;;;;;5.43;3.80;;;23.80;99.90;;;;;;5096034;28;20947;-66
2022/09/13 22:46:33;;;;;;;2.40;2.30;;;23.70;99.90;;;;;;5095015;28;20442;-66
2022/09/13 22:49:01;;;;;;;2.37;2.27;;;23.70;99.90;;;;;;5099746;28;20477;-65
2022/09/13 22:51:28;;;;;;;2.97;2.27;;;23.70;99.90;;;;;;5106196;27;20452;-66
2022/09/13 22:53:55;;;;;;;2.30;2.20;;;23.70;99.90;;;;;;5101407;28;20442;-66
2022/09/13 22:56:24;;;;;;;2.20;2.10;;;23.70;99.90;;;;;;5110728;28;20476;-66
2022/09/13 22:58:55;;;;;;;2.70;2.50;;;23.70;99.90;;;;;;5110875;28;20825;-65
2022/09/13 23:01:22;;;;;;;1.70;1.70;;;23.70;99.90;;;;;;5102255;28;20494;-65
2022/09/13 23:03:50;;;;;;;2.10;2.00;;;23.70;99.90;;;;;;5114541;28;21014;-64
2022/09/13 23:06:18;;;;;;;3.50;2.40;;;23.70;99.90;;;;;;5109309;28;20472;-65
2022/09/13 23:08:46;;;;;;;2.20;1.97;;;23.60;99.90;;;;;;5103792;28;21034;-65
2022/09/13 23:11:17;;;;;;;2.20;2.10;;;23.60;99.90;;;;;;5101035;28;20832;-64
2022/09/13 23:13:45;;;;;;;2.40;1.90;;;23.70;99.90;;;;;;5097418;28;20464;-65
2022/09/13 23:16:16;;;;;;;2.57;2.37;;;23.60;99.90;;;;;;5114919;28;20437;-65
2022/09/13 23:18:43;;;;;;;2.13;2.00;;;23.60;99.90;;;;;;5111645;28;20588;-66
2022/09/13 23:21:11;;;;;;;2.20;2.10;;;23.60;99.90;;;;;;5094214;28;20529;-65
2022/09/13 23:23:38;;;;;;;2.00;1.90;;;23.60;99.90;;;;;;5105125;28;20532;-65
2022/09/13 23:26:08;;;;;;;1.97;1.87;;;23.60;99.90;;;;;;5095352;28;20533;-65
2022/09/13 23:28:35;;;;;;;4.17;1.90;;;23.60;99.90;;;;;;5095498;28;20458;-66
2022/09/13 23:31:11;;;;;;;1.60;1.60;;;23.50;99.90;;;;;;5114566;28;20476;-66
2022/09/13 23:33:40;;;;;;;3.50;1.67;;;23.50;99.90;;;;;;5112837;28;20441;-66
2022/09/13 23:36:08;;;;;;;2.13;1.93;;;23.50;99.90;;;;;;5103714;28;20818;-65
2022/09/13 23:38:35;;;;;;;2.30;2.10;;;23.50;99.90;;;;;;5096729;28;20580;-66
2022/09/13 23:41:02;;;;;;;1.60;1.50;;;23.50;99.90;;;;;;5114288;28;20433;-65
2022/09/13 23:43:29;;;;;;;1.97;1.80;;;23.50;99.90;;;;;;5112925;28;20444;-65
2022/09/13 23:45:55;;;;;;;1.80;1.70;;;23.50;99.90;;;;;;5094012;28;20534;-66
2022/09/13 23:48:22;;;;;;;3.13;1.70;;;23.50;99.90;;;;;;5102374;28;20480;-66
2022/09/13 23:50:58;;;;;;;2.00;1.80;;;23.50;99.90;;;;;;5103103;27;20481;-65
2022/09/13 23:53:24;;;;;;;2.07;1.80;;;23.40;99.90;;;;;;5093913;28;20496;-65
2022/09/13 23:55:51;;;;;;;2.57;2.07;;;23.40;99.90;;;;;;5110037;28;20447;-65
2022/09/13 23:58:18;;;;;;;2.00;1.33;;;23.40;99.90;;;;;;5104927;28;20544;-65
